Historique des mesures à Cassis (13260), France
Quotidien Résumé Janvier 7, 2017 Unités:  Métrique    US   Métrique/US
« Précédent (Jour)
Suivant (Jour) »
Quotidien Hebdomadaire Mensuel Annuel Période au choix
  Maximum: Minimum: Moyenne:
Température: TemperatureC °C 4.4 °C 6.4 °C
Point de rosée: DewpointC °C -5.0 °C -1 °C
Humidité: Humidity % 49 % 56 %
Vitesse du vent: 0 km/h 0 km/h 0.8 km/h
Rafales: 0 km/h - -
Vent:- - SSW
Pression: PressurehPa hPa 1022.6 hPa -
Précipitations: 0.0 mm    
Historical Graphs
 
 
Mesures pour : Janvier 7, 2017
Heure Temperature Point de rosée Pression Vent Vitesse du vent Rafales Humidité Pluie (par heure) Conditions
TemperatureC °C DewpointC °C PressurehPa hPa Calm     Humidity % HourlyPrecipMM mm SoftwareType W/m2
00:11 5.3 °C -3.6 °C 1023.9 hPa Calm   5.1 km/h 53 % 0.0 mm open2300-1.11 W/m2
01:10 5.2 °C -4.4 °C 1023.9 hPa Calm   8 km/h 50 % 0.0 mm open2300-1.11 W/m2
02:11 4.9 °C -5.0 °C 1023.6 hPa Calm     49 % 0.0 mm open2300-1.11 W/m2
03:10 5.0 °C -4.6 °C 1023.9 hPa Calm     50 % 0.0 mm open2300-1.11 W/m2
04:11 4.9 °C -4.2 °C 1023.6 hPa Calm     52 % 0.0 mm open2300-1.11 W/m2
05:10 5.0 °C -3.3 °C 1023.9 hPa Calm     55 % 0.0 mm open2300-1.11 W/m2
06:11 5.2 °C -2.9 °C 1023.9 hPa Calm     56 % 0.0 mm open2300-1.11 W/m2
07:10 5.3 °C -2.3 °C 1024.3 hPa Calm   3.4 km/h 58 % 0.0 mm open2300-1.11 W/m2
08:11 5.1 °C -2.5 °C 1024.6 hPa Calm   7.6 km/h 58 % 0.0 mm open2300-1.11 W/m2
09:10 5.4 °C -1.3 °C 1024.9 hPa Calm     62 % 0.0 mm open2300-1.11 W/m2
10:11 6.7 °C 0.1 °C 1025.3 hPa Calm     63 % 0.0 mm open2300-1.11 W/m2
11:10 7.9 °C 1.5 °C 1025.6 hPa Calm     64 % 0.0 mm open2300-1.11 W/m2
12:11 9.0 °C 2.3 °C 1025.3 hPa Calm     63 % 0.0 mm open2300-1.11 W/m2
13:11 9.9 °C 3.4 °C 1024.6 hPa Calm     64 % 0.0 mm open2300-1.11 W/m2
14:11 10.5 °C 3.9 °C 1024.3 hPa Calm     64 % 0.0 mm open2300-1.11 W/m2
15:10 10.8 °C 4.0 °C 1024.3 hPa Calm     63 % 0.0 mm open2300-1.11 W/m2
16:11 10.1 °C 2.7 °C 1023.9 hPa NW 4.7 km/h 13.2 km/h 60 % 0.0 mm open2300-1.11 W/m2
17:10 8.5 °C 0.9 °C 1023.9 hPa North 3.4 km/h 3.4 km/h 59 % 0.0 mm open2300-1.11 W/m2
18:11 6.9 °C -1.1 °C 1023.6 hPa WNW 13.2 km/h 30.7 km/h 57 % 0.0 mm open2300-1.11 W/m2
19:10 6.3 °C -1.2 °C 1023.2 hPa Calm     59 % 0.0 mm open2300-1.11 W/m2
20:11 5.9 °C -1.3 °C 1023.2 hPa Calm     60 % 0.0 mm open2300-1.11 W/m2
21:10 5.8 °C -1.6 °C 1022.9 hPa Calm     59 % 0.0 mm open2300-1.11 W/m2
22:11 5.0 °C -2.8 °C 1022.6 hPa Calm   2.3 km/h 57 % 0.0 mm open2300-1.11 W/m2
23:10 4.4 °C -2.9 °C 1022.6 hPa Calm     59 % 0.0 mm open2300-1.11 W/m2
Observations météo à CASSIS
WU-History script by Weather Underground - 1 mb